createdAt,value
2018-12-16T00:00:05.807Z,101941.03
2018-12-16T00:02:35.011Z,101943.67
2018-12-16T00:05:04.592Z,101933.59
2018-12-16T00:07:33.982Z,101933.88
2018-12-16T00:10:03.076Z,101929.80
2018-12-16T00:12:32.880Z,101920.09
2018-12-16T00:15:02.678Z,101924.00
2018-12-16T00:17:32.113Z,101924.89
2018-12-16T00:20:01.311Z,101926.73
2018-12-16T00:22:30.846Z,101923.88
2018-12-16T00:25:00.576Z,101912.17
2018-12-16T00:27:29.795Z,101917.06
2018-12-16T00:29:59.945Z,101910.52
2018-12-16T00:32:29.091Z,101912.56
2018-12-16T00:34:58.179Z,101904.65
2018-12-16T00:37:27.763Z,101902.30
2018-12-16T00:39:57.207Z,101896.71
2018-12-16T00:42:26.400Z,101896.62
2018-12-16T00:44:55.510Z,101890.47
2018-12-16T00:47:24.749Z,101886.80
2018-12-16T00:49:54.307Z,101880.16
2018-12-16T00:52:23.957Z,101878.72
2018-12-16T00:54:53.391Z,101879.83
2018-12-16T00:57:22.511Z,101872.09
2018-12-16T00:59:51.816Z,101877.40
2018-12-16T01:02:26.299Z,101880.48
2018-12-16T01:04:55.675Z,101880.78
2018-12-16T01:07:25.275Z,101871.86
2018-12-16T01:09:54.423Z,101865.61
2018-12-16T01:12:23.639Z,101854.48
2018-12-16T01:14:53.121Z,101850.23
2018-12-16T01:17:22.405Z,101848.35
2018-12-16T01:19:51.554Z,101847.04
2018-12-16T01:22:21.035Z,101846.36
2018-12-16T01:24:50.959Z,101846.87
2018-12-16T01:27:20.157Z,101849.01
2018-12-16T01:29:49.352Z,101837.03
2018-12-16T01:32:18.559Z,101836.34
2018-12-16T01:34:48.195Z,101838.64
2018-12-16T01:37:17.463Z,101832.28
2018-12-16T01:39:47.045Z,101823.33
2018-12-16T01:42:16.571Z,101822.80
2018-12-16T01:44:46.089Z,101822.02
2018-12-16T01:47:15.464Z,101813.75
2018-12-16T01:49:44.987Z,101812.86
2018-12-16T01:52:14.183Z,101806.39
2018-12-16T01:54:43.587Z,101799.96
2018-12-16T01:57:12.753Z,101794.89
2018-12-16T01:59:42.082Z,101793.95
2018-12-16T02:02:11.595Z,101781.97
2018-12-16T02:04:40.753Z,101777.30
2018-12-16T02:07:09.880Z,101773.70
2018-12-16T02:09:39.035Z,101771.00
2018-12-16T02:12:08.550Z,101773.59
2018-12-16T02:14:38.127Z,101767.25
2018-12-16T02:17:07.564Z,101763.62
2018-12-16T02:19:36.687Z,101758.17
2018-12-16T02:22:06.381Z,101756.57
2018-12-16T02:24:35.513Z,101760.34
2018-12-16T02:27:04.655Z,101753.90
2018-12-16T02:29:34.172Z,101758.35
2018-12-16T02:32:03.318Z,101753.25
2018-12-16T02:34:32.757Z,101750.21
2018-12-16T02:37:01.950Z,101755.43
2018-12-16T02:39:31.147Z,101749.64
2018-12-16T02:42:00.709Z,101745.66
2018-12-16T02:44:29.913Z,101746.70
2018-12-16T02:46:59.686Z,101752.74
2018-12-16T02:49:29.017Z,101747.15
2018-12-16T02:51:59.022Z,101756.38
2018-12-16T02:54:28.255Z,101743.61
2018-12-16T02:56:57.809Z,101735.30
2018-12-16T02:59:27.743Z,101737.75
2018-12-16T03:01:56.903Z,101723.22
2018-12-16T03:04:26.076Z,101723.02
2018-12-16T03:06:55.297Z,101727.01
2018-12-16T03:09:24.407Z,101722.33
2018-12-16T03:11:53.571Z,101707.62
2018-12-16T03:14:22.841Z,101696.94
2018-12-16T03:16:52.035Z,101702.33
2018-12-16T03:19:21.445Z,101689.25
2018-12-16T03:21:50.593Z,101698.51
2018-12-16T03:24:20.055Z,101701.49
2018-12-16T03:26:49.187Z,101697.58
2018-12-16T03:29:18.626Z,101688.20
2018-12-16T03:31:47.881Z,101696.08
2018-12-16T03:34:17.074Z,101683.33
2018-12-16T03:36:46.145Z,101684.52
2018-12-16T03:39:15.309Z,101689.52
2018-12-16T03:41:44.456Z,101686.94
2018-12-16T03:44:14.047Z,101675.36
2018-12-16T03:46:43.781Z,101689.55
2018-12-16T03:49:13.133Z,101687.17
2018-12-16T03:51:42.355Z,101676.77
2018-12-16T03:54:11.947Z,101675.02
2018-12-16T03:56:41.713Z,101682.23
2018-12-16T03:59:18.502Z,101672.51
2018-12-16T04:01:53.158Z,101676.14
2018-12-16T04:04:22.340Z,101673.67
2018-12-16T04:06:51.700Z,101673.89
2018-12-16T04:09:21.161Z,101660.05
2018-12-16T04:11:50.397Z,101661.13
2018-12-16T04:14:19.917Z,101661.42
2018-12-16T04:16:49.034Z,101665.30
2018-12-16T04:19:18.505Z,101646.91
2018-12-16T04:21:47.800Z,101643.48
2018-12-16T04:24:17.429Z,101641.25
2018-12-16T04:26:46.525Z,101645.78
2018-12-16T04:29:16.093Z,101631.55
2018-12-16T04:31:45.203Z,101629.70
2018-12-16T04:34:14.390Z,101620.37
2018-12-16T04:36:43.584Z,101618.27
2018-12-16T04:39:12.661Z,101622.13
2018-12-16T04:41:41.939Z,101616.97
2018-12-16T04:44:11.146Z,101611.27
2018-12-16T04:46:40.512Z,101613.91
2018-12-16T04:49:09.615Z,101605.80
2018-12-16T04:51:38.737Z,101613.58
2018-12-16T04:54:08.116Z,101609.33
2018-12-16T04:56:37.337Z,101610.02
2018-12-16T04:59:06.747Z,101603.47
2018-12-16T05:01:36.420Z,101601.59
2018-12-16T05:04:05.526Z,101591.63
2018-12-16T05:06:34.720Z,101594.51
2018-12-16T05:09:05.007Z,101585.35
2018-12-16T05:11:34.146Z,101588.03
2018-12-16T05:14:03.344Z,101583.06
2018-12-16T05:16:32.793Z,101573.06
2018-12-16T05:19:02.273Z,101565.34
2018-12-16T05:21:31.368Z,101553.84
2018-12-16T05:24:00.586Z,101556.20
2018-12-16T05:26:29.927Z,101556.70
2018-12-16T05:28:59.307Z,101554.42
2018-12-16T05:31:28.481Z,101534.38
2018-12-16T05:33:58.018Z,101544.22
2018-12-16T05:36:27.167Z,101543.33
2018-12-16T05:38:56.466Z,101533.34
2018-12-16T05:41:25.840Z,101528.57
2018-12-16T05:43:55.037Z,101520.92
2018-12-16T05:46:24.646Z,101530.98
2018-12-16T05:48:54.017Z,101525.34
2018-12-16T05:51:23.478Z,101523.58
2018-12-16T05:53:52.846Z,101526.88
2018-12-16T05:56:21.998Z,101519.31
2018-12-16T05:58:51.316Z,101521.37
2018-12-16T06:01:20.428Z,101521.66
2018-12-16T06:03:49.584Z,101511.37
2018-12-16T06:06:19.021Z,101507.82
2018-12-16T06:08:48.297Z,101504.46
2018-12-16T06:11:17.689Z,101505.08
2018-12-16T06:13:47.063Z,101499.98
2018-12-16T06:16:16.313Z,101491.48
2018-12-16T06:18:45.636Z,101491.41
2018-12-16T06:21:14.985Z,101499.70
2018-12-16T06:23:44.101Z,101493.58
2018-12-16T06:26:13.465Z,101485.68
2018-12-16T06:28:42.938Z,101481.05
2018-12-16T06:31:12.043Z,101480.16
2018-12-16T06:33:41.197Z,101477.19
2018-12-16T06:36:10.397Z,101479.41
2018-12-16T06:38:39.476Z,101480.93
2018-12-16T06:41:08.852Z,101474.62
2018-12-16T06:43:38.402Z,101472.14
2018-12-16T06:46:07.728Z,101466.41
2018-12-16T06:48:37.186Z,101456.53
2018-12-16T06:51:06.311Z,101459.39
2018-12-16T06:53:35.848Z,101450.06
2018-12-16T06:56:06.777Z,101442.84
2018-12-16T06:58:36.139Z,101438.78
2018-12-16T07:01:05.479Z,101441.47
2018-12-16T07:03:34.585Z,101439.33
2018-12-16T07:06:03.770Z,101441.69
2018-12-16T07:08:33.152Z,101433.64
2018-12-16T07:11:02.286Z,101441.55
2018-12-16T07:13:31.474Z,101449.03
2018-12-16T07:16:01.078Z,101453.91
2018-12-16T07:18:30.811Z,101464.69
2018-12-16T07:20:59.967Z,101473.27
2018-12-16T07:23:29.394Z,101469.93
2018-12-16T07:25:58.661Z,101467.47
2018-12-16T07:28:28.383Z,101471.58
2018-12-16T07:30:57.617Z,101467.91
2018-12-16T07:33:27.079Z,101464.93
2018-12-16T07:35:56.235Z,101462.67
2018-12-16T07:38:25.653Z,101460.83
2018-12-16T07:40:55.052Z,101475.14
2018-12-16T07:43:24.285Z,101470.80
2018-12-16T07:45:53.713Z,101467.52
2018-12-16T07:48:23.525Z,101461.75
2018-12-16T07:50:53.568Z,101462.56
2018-12-16T07:53:23.105Z,101454.73
2018-12-16T07:55:52.518Z,101455.89
2018-12-16T07:58:21.979Z,101450.19
2018-12-16T08:00:51.113Z,101443.96
2018-12-16T08:03:20.537Z,101441.51
2018-12-16T08:05:49.772Z,101443.25
2018-12-16T08:08:18.970Z,101440.36
2018-12-16T08:10:48.179Z,101433.63
2018-12-16T08:13:17.662Z,101433.52
2018-12-16T08:15:46.765Z,101436.64
2018-12-16T08:18:17.137Z,101422.27
2018-12-16T08:20:46.385Z,101430.36
2018-12-16T08:23:15.480Z,101424.99
2018-12-16T08:25:44.629Z,101432.20
2018-12-16T08:28:13.897Z,101426.45
2018-12-16T08:30:43.223Z,101434.30
2018-12-16T08:33:12.365Z,101428.30
2018-12-16T08:35:41.484Z,101428.23
2018-12-16T08:38:10.621Z,101425.64
2018-12-16T08:40:39.729Z,101429.63
2018-12-16T08:43:09.436Z,101429.70
2018-12-16T08:45:38.523Z,101425.89
2018-12-16T08:48:07.696Z,101429.27
2018-12-16T08:50:37.467Z,101430.86
2018-12-16T08:53:07.047Z,101438.27
2018-12-16T08:55:36.577Z,101437.73
2018-12-16T08:58:05.844Z,101422.55
2018-12-16T09:00:35.665Z,101421.72
2018-12-16T09:05:45.661Z,101423.92
2018-12-16T09:08:14.816Z,101422.13
2018-12-16T09:10:44.017Z,101419.52
2018-12-16T09:13:13.974Z,101413.94
2018-12-16T09:15:43.146Z,101408.62
2018-12-16T09:18:12.849Z,101398.46
2018-12-16T09:20:42.235Z,101398.06
2018-12-16T09:23:11.360Z,101393.52
2018-12-16T09:25:40.490Z,101394.36
2018-12-16T09:28:09.725Z,101387.88
2018-12-16T09:30:39.057Z,101392.36
2018-12-16T09:33:08.449Z,101387.16
2018-12-16T09:35:37.889Z,101387.95
2018-12-16T09:38:07.047Z,101385.53
2018-12-16T09:40:36.159Z,101371.95
2018-12-16T09:43:05.295Z,101363.88
2018-12-16T09:45:34.499Z,101357.73
2018-12-16T09:48:03.687Z,101357.46
2018-12-16T09:50:32.827Z,101351.80
2018-12-16T09:53:03.745Z,101346.09
2018-12-16T09:55:33.111Z,101339.42
2018-12-16T09:58:02.395Z,101333.86
2018-12-16T10:00:32.902Z,101334.02
2018-12-16T10:03:02.348Z,101334.05
2018-12-16T10:05:31.673Z,101329.77
2018-12-16T10:08:01.653Z,101334.89
2018-12-16T10:10:30.781Z,101337.73
2018-12-16T10:13:00.145Z,101334.68
2018-12-16T10:15:29.356Z,101331.17
2018-12-16T10:17:58.416Z,101329.19
2018-12-16T10:20:28.127Z,101317.31
2018-12-16T10:22:57.241Z,101318.50
2018-12-16T10:25:26.408Z,101317.30
2018-12-16T10:27:55.777Z,101314.82
2018-12-16T10:30:24.926Z,101318.56
2018-12-16T10:32:54.596Z,101317.24
2018-12-16T10:35:24.062Z,101303.96
2018-12-16T10:37:53.533Z,101304.07
2018-12-16T10:40:22.696Z,101304.53
2018-12-16T10:42:52.197Z,101296.81
2018-12-16T10:45:21.337Z,101296.74
2018-12-16T10:47:50.834Z,101301.62
2018-12-16T10:50:20.234Z,101303.22
2018-12-16T10:52:49.906Z,101286.19
2018-12-16T10:55:19.318Z,101280.55
2018-12-16T10:57:48.445Z,101271.63
2018-12-16T11:00:23.048Z,101268.32
2018-12-16T11:02:52.314Z,101269.08
2018-12-16T11:05:21.572Z,101261.41
2018-12-16T11:07:50.756Z,101260.22
2018-12-16T11:10:20.108Z,101255.31
2018-12-16T11:12:49.570Z,101251.63
2018-12-16T11:15:19.047Z,101255.38
2018-12-16T11:17:48.426Z,101251.36
2018-12-16T11:20:17.693Z,101253.13
2018-12-16T11:22:47.108Z,101247.33
2018-12-16T11:25:18.421Z,101251.48
2018-12-16T11:27:47.795Z,101243.15
2018-12-16T11:30:17.077Z,101240.59
2018-12-16T11:32:46.313Z,101237.59
2018-12-16T11:35:15.494Z,101239.16
2018-12-16T11:37:44.796Z,101232.72
2018-12-16T11:40:14.014Z,101227.94
2018-12-16T11:42:43.243Z,101226.34
2018-12-16T11:45:12.418Z,101227.69
2018-12-16T11:47:41.807Z,101227.33
2018-12-16T11:50:11.184Z,101227.73
2018-12-16T11:52:40.625Z,101219.35
2018-12-16T11:55:12.946Z,101212.98
2018-12-16T11:57:43.481Z,101208.88
2018-12-16T12:00:12.974Z,101205.92
2018-12-16T12:02:42.421Z,101204.80
2018-12-16T12:05:11.561Z,101193.42
2018-12-16T12:07:41.232Z,101190.13
2018-12-16T12:10:10.893Z,101186.13
2018-12-16T12:12:40.601Z,101175.83
2018-12-16T12:15:09.848Z,101172.58
2018-12-16T12:17:39.365Z,101167.62
2018-12-16T12:20:09.075Z,101159.88
2018-12-16T12:22:38.325Z,101153.62
2018-12-16T12:25:07.485Z,101160.79
2018-12-16T12:27:36.657Z,101153.06
2018-12-16T12:30:08.688Z,101146.23
2018-12-16T12:32:38.134Z,101149.42
2018-12-16T12:35:08.934Z,101146.87
2018-12-16T12:37:38.658Z,101147.53
2018-12-16T12:40:08.388Z,101151.84
2018-12-16T12:42:37.694Z,101142.75
2018-12-16T12:45:07.522Z,101137.58
2018-12-16T12:47:36.723Z,101134.70
2018-12-16T12:50:07.641Z,101135.33
2018-12-16T12:52:36.984Z,101139.08
2018-12-16T12:55:06.972Z,101131.95
2018-12-16T12:57:36.180Z,101136.22
2018-12-16T13:00:10.557Z,101130.27
2018-12-16T13:02:39.677Z,101123.17
2018-12-16T13:05:08.990Z,101129.73
2018-12-16T13:07:38.180Z,101125.68
2018-12-16T13:10:10.677Z,101117.64
2018-12-16T13:12:39.985Z,101126.64
2018-12-16T13:15:09.294Z,101123.92
2018-12-16T13:17:38.585Z,101127.24
2018-12-16T13:20:08.800Z,101123.59
2018-12-16T13:22:37.986Z,101124.63
2018-12-16T13:25:24.199Z,101126.36
2018-12-16T13:27:53.563Z,101125.94
2018-12-16T13:30:23.499Z,101126.36
2018-12-16T13:32:52.949Z,101130.46
2018-12-16T13:35:22.591Z,101128.03
2018-12-16T13:37:51.759Z,101121.00
2018-12-16T13:40:20.922Z,101118.36
2018-12-16T13:42:50.550Z,101116.66
2018-12-16T13:45:19.829Z,101112.41
2018-12-16T13:47:49.144Z,101120.36
2018-12-16T13:50:18.931Z,101119.83
2018-12-16T13:52:48.154Z,101122.16
2018-12-16T13:55:17.416Z,101107.50
2018-12-16T14:00:25.786Z,101111.84
2018-12-16T14:02:55.285Z,101118.66
2018-12-16T14:05:24.425Z,101109.43
2018-12-16T14:07:53.739Z,101111.05
2018-12-16T14:10:23.052Z,101103.24
2018-12-16T14:12:52.215Z,101113.25
2018-12-16T14:15:21.585Z,101105.83
2018-12-16T14:17:51.081Z,101104.98
2018-12-16T14:20:20.593Z,101111.61
2018-12-16T14:22:49.958Z,101107.79
2018-12-16T14:25:20.276Z,101108.34
2018-12-16T14:27:49.712Z,101109.04
2018-12-16T14:30:19.116Z,101105.47
2018-12-16T14:32:49.748Z,101110.39
2018-12-16T14:35:19.228Z,101113.48
2018-12-16T14:37:48.753Z,101120.23
2018-12-16T14:40:18.140Z,101116.38
2018-12-16T14:42:47.884Z,101119.23
2018-12-16T14:45:17.239Z,101119.18
2018-12-16T14:47:47.330Z,101116.11
2018-12-16T14:50:17.024Z,101119.56
2018-12-16T14:52:47.242Z,101121.25
2018-12-16T14:55:16.719Z,101121.86
2018-12-16T14:57:46.185Z,101120.78
2018-12-16T15:00:16.261Z,101121.65
2018-12-16T15:02:45.606Z,101118.73
2018-12-16T15:05:16.143Z,101118.11
2018-12-16T15:07:45.633Z,101113.53
2018-12-16T15:10:14.812Z,101112.27
2018-12-16T15:12:44.524Z,101114.41
2018-12-16T15:15:14.864Z,101109.78
2018-12-16T15:17:44.816Z,101112.72
2018-12-16T15:20:14.766Z,101112.52
2018-12-16T15:22:44.092Z,101109.91
2018-12-16T15:25:13.389Z,101102.30
2018-12-16T15:27:42.909Z,101100.11
2018-12-16T15:30:12.613Z,101101.92
2018-12-16T15:32:41.925Z,101109.89
2018-12-16T15:35:11.370Z,101105.63
2018-12-16T15:37:40.676Z,101105.00
2018-12-16T15:40:09.878Z,101107.44
2018-12-16T15:42:39.416Z,101110.67
2018-12-16T15:45:10.869Z,101114.05
2018-12-16T15:47:40.018Z,101110.71
2018-12-16T15:50:10.693Z,101112.48
2018-12-16T15:52:39.933Z,101105.12
2018-12-16T15:55:11.170Z,101109.73
2018-12-16T15:57:41.026Z,101117.42
2018-12-16T16:00:10.434Z,101117.23
2018-12-16T16:02:39.856Z,101113.85
2018-12-16T16:05:09.390Z,101120.02
2018-12-16T16:07:38.988Z,101115.08
2018-12-16T16:10:09.337Z,101120.12
2018-12-16T16:12:38.548Z,101125.49
2018-12-16T16:15:09.173Z,101130.90
2018-12-16T16:17:38.373Z,101130.03
2018-12-16T16:20:08.228Z,101129.03
2018-12-16T16:22:37.868Z,101132.17
2018-12-16T16:25:07.215Z,101136.79
2018-12-16T16:27:36.439Z,101140.77
2018-12-16T16:30:07.196Z,101140.50
2018-12-16T16:32:36.625Z,101142.53
2018-12-16T16:35:06.584Z,101139.03
2018-12-16T16:37:36.007Z,101142.34
2018-12-16T16:40:06.263Z,101139.72
2018-12-16T16:42:36.817Z,101153.48
2018-12-16T16:45:06.810Z,101154.98
2018-12-16T16:47:36.177Z,101153.56
2018-12-16T16:50:05.470Z,101153.09
2018-12-16T16:52:34.900Z,101152.94
2018-12-16T16:55:04.421Z,101149.94
2018-12-16T16:57:33.597Z,101143.65
2018-12-16T17:00:03.089Z,101150.15
2018-12-16T17:02:32.661Z,101147.28
2018-12-16T17:05:01.949Z,101147.77
2018-12-16T17:07:31.449Z,101146.86
2018-12-16T17:10:00.743Z,101143.98
2018-12-16T17:12:30.012Z,101144.27
2018-12-16T17:14:59.838Z,101145.48
2018-12-16T17:17:29.060Z,101150.98
2018-12-16T17:19:58.705Z,101155.81
2018-12-16T17:22:27.963Z,101153.23
2018-12-16T17:24:57.158Z,101147.67
2018-12-16T17:27:26.884Z,101148.76
2018-12-16T17:29:56.358Z,101145.41
2018-12-16T17:32:25.611Z,101143.02
2018-12-16T17:34:55.130Z,101146.58
2018-12-16T17:37:24.408Z,101146.14
2018-12-16T17:39:53.497Z,101146.53
2018-12-16T17:42:22.733Z,101140.49
2018-12-16T17:44:51.981Z,101143.97
2018-12-16T17:47:21.777Z,101144.00
2018-12-16T17:49:51.300Z,101136.70
2018-12-16T17:52:20.981Z,101144.80
2018-12-16T17:54:50.109Z,101142.86
2018-12-16T17:57:19.485Z,101145.03
2018-12-16T17:59:48.717Z,101144.87
2018-12-16T18:02:18.020Z,101156.20
2018-12-16T18:04:47.196Z,101156.53
2018-12-16T18:07:16.683Z,101161.59
2018-12-16T18:09:45.845Z,101161.29
2018-12-16T18:12:15.712Z,101149.74
2018-12-16T18:14:45.284Z,101154.18
2018-12-16T18:17:14.531Z,101159.21
2018-12-16T18:19:43.667Z,101153.72
2018-12-16T18:22:14.147Z,101154.05
2018-12-16T18:24:43.662Z,101158.67
2018-12-16T18:27:12.840Z,101165.41
2018-12-16T18:29:43.124Z,101164.97
2018-12-16T18:32:12.534Z,101163.59
2018-12-16T18:34:42.202Z,101168.69
2018-12-16T18:37:11.480Z,101172.38
2018-12-16T18:39:40.691Z,101169.77
2018-12-16T18:42:10.247Z,101174.57
2018-12-16T18:44:39.462Z,101169.00
2018-12-16T18:47:08.735Z,101167.98
2018-12-16T18:49:37.916Z,101168.87
2018-12-16T18:52:07.255Z,101164.39
2018-12-16T18:54:36.757Z,101165.31
2018-12-16T18:57:07.296Z,101164.44
2018-12-16T18:59:36.877Z,101168.74
2018-12-16T19:02:06.161Z,101164.98
2018-12-16T19:04:35.842Z,101174.27
2018-12-16T19:07:05.401Z,101176.53
2018-12-16T19:09:34.746Z,101169.77
2018-12-16T19:12:04.017Z,101170.20
2018-12-16T19:14:33.726Z,101172.97
2018-12-16T19:17:02.911Z,101176.86
2018-12-16T19:19:32.460Z,101167.77
2018-12-16T19:22:02.696Z,101168.55
2018-12-16T19:24:32.295Z,101173.43
2018-12-16T19:27:01.621Z,101175.70
2018-12-16T19:29:30.941Z,101170.95
2018-12-16T19:32:00.218Z,101166.94
2018-12-16T19:34:29.391Z,101167.53
2018-12-16T19:36:58.667Z,101168.06
2018-12-16T19:39:27.827Z,101164.56
2018-12-16T19:41:57.290Z,101165.80
2018-12-16T19:44:27.183Z,101168.42
2018-12-16T19:46:56.368Z,101175.39
2018-12-16T19:49:25.641Z,101167.41
2018-12-16T19:51:54.953Z,101160.16
2018-12-16T19:54:24.465Z,101155.52
2018-12-16T19:56:54.280Z,101162.38
2018-12-16T19:59:23.551Z,101167.19
2018-12-16T20:01:52.847Z,101160.94
2018-12-16T20:07:09.147Z,101165.59
2018-12-16T20:09:38.390Z,101163.83
2018-12-16T20:12:07.696Z,101169.80
2018-12-16T20:14:44.130Z,101165.97
2018-12-16T20:17:14.203Z,101168.77
2018-12-16T20:19:43.549Z,101175.42
2018-12-16T20:22:12.787Z,101163.48
2018-12-16T20:24:42.626Z,101169.00
2018-12-16T20:27:12.164Z,101169.80
2018-12-16T20:29:41.424Z,101176.66
2018-12-16T20:32:10.600Z,101165.13
2018-12-16T20:34:40.371Z,101162.27
2018-12-16T20:37:09.758Z,101157.67
2018-12-16T20:39:38.957Z,101160.29
2018-12-16T20:42:08.223Z,101159.88
2018-12-16T20:44:37.428Z,101167.80
2018-12-16T20:47:07.229Z,101168.81
2018-12-16T20:49:37.106Z,101165.25
2018-12-16T20:52:06.376Z,101166.78
2018-12-16T20:54:35.592Z,101167.85
2018-12-16T20:57:04.999Z,101164.67
2018-12-16T20:59:34.232Z,101168.00
2018-12-16T21:02:03.706Z,101171.88
2018-12-16T21:04:32.957Z,101166.44
2018-12-16T21:07:02.092Z,101172.97
2018-12-16T21:09:31.427Z,101180.74
2018-12-16T21:12:01.088Z,101181.02
2018-12-16T21:14:35.786Z,101187.66
2018-12-16T21:17:11.351Z,101184.11
2018-12-16T21:19:40.876Z,101190.73
2018-12-16T21:22:12.047Z,101185.23
2018-12-16T21:24:41.520Z,101189.50
2018-12-16T21:27:10.844Z,101196.41
2018-12-16T21:29:40.349Z,101197.62
2018-12-16T21:32:10.311Z,101201.51
2018-12-16T21:34:39.512Z,101209.06
2018-12-16T21:37:08.969Z,101213.47
2018-12-16T21:39:38.381Z,101210.24
2018-12-16T21:42:07.580Z,101209.94
2018-12-16T21:44:37.090Z,101207.75
2018-12-16T21:47:06.689Z,101209.70
2018-12-16T21:49:36.152Z,101214.67
2018-12-16T21:52:05.466Z,101210.92
2018-12-16T21:54:34.699Z,101208.88
2018-12-16T21:57:04.256Z,101208.31
2018-12-16T21:59:34.279Z,101211.02
2018-12-16T22:02:03.661Z,101210.59
2018-12-16T22:04:33.211Z,101204.55
2018-12-16T22:07:02.869Z,101199.11
2018-12-16T22:09:33.958Z,101202.56
2018-12-16T22:12:03.151Z,101202.59
2018-12-16T22:14:32.243Z,101199.70
2018-12-16T22:17:01.774Z,101206.28
2018-12-16T22:19:31.709Z,101202.34
2018-12-16T22:22:01.268Z,101204.66
2018-12-16T22:24:30.581Z,101207.30
2018-12-16T22:27:00.466Z,101205.79
2018-12-16T22:29:30.078Z,101198.20
2018-12-16T22:31:59.062Z,101191.75
2018-12-16T22:34:30.067Z,101198.91
2018-12-16T22:36:59.248Z,101200.97
2018-12-16T22:39:28.446Z,101199.96
2018-12-16T22:41:57.652Z,101212.30
2018-12-16T22:44:27.019Z,101207.06
2018-12-16T22:46:56.385Z,101201.83
2018-12-16T22:49:25.795Z,101195.95
2018-12-16T22:51:54.906Z,101206.47
2018-12-16T22:54:23.975Z,101209.53
2018-12-16T22:56:53.485Z,101213.41
2018-12-16T22:59:23.103Z,101217.20
2018-12-16T23:01:52.719Z,101218.65
2018-12-16T23:04:22.510Z,101218.92
2018-12-16T23:06:53.165Z,101223.69
2018-12-16T23:09:22.317Z,101223.66
2018-12-16T23:11:51.737Z,101215.75
2018-12-16T23:14:20.881Z,101220.92
2018-12-16T23:16:50.268Z,101226.62
2018-12-16T23:19:19.824Z,101236.05
2018-12-16T23:21:49.386Z,101243.45
2018-12-16T23:24:19.159Z,101238.27
2018-12-16T23:26:48.617Z,101237.64
2018-12-16T23:29:18.170Z,101241.05
2018-12-16T23:31:47.613Z,101244.55
2018-12-16T23:34:17.104Z,101244.05
2018-12-16T23:36:46.306Z,101250.45
2018-12-16T23:39:15.532Z,101246.20
2018-12-16T23:41:44.797Z,101241.62
2018-12-16T23:44:14.246Z,101247.37
2018-12-16T23:46:43.421Z,101244.69
2018-12-16T23:49:12.773Z,101249.38
2018-12-16T23:51:41.865Z,101254.52
2018-12-16T23:54:11.737Z,101259.16
2018-12-16T23:56:41.307Z,101251.15
2018-12-16T23:59:10.501Z,101252.88
